Cornland, Illinois
Current Conditions -  °F | °C
As of 12:52 PM on Thursday 30 Oct 2014 (Local Time) from KSPI Reporting Station
Overcast Overcast  
Wind Chill: 52°   Ceiling: 6000
Heat Index: 52°   Visibility: 10mi
Dew Point: 39°   Wind: 7mph
Humidity: 61%   Direction: 200°SSW
Pressure: 30.1"   Gusts: NA
Location:  39.94°N, 89.4°W
Report Text: KSPI 301752Z 20006KT 10SM OVC060 11/04 A3010 RMK AO2 RAB1659E38 SLP195 P0000 60000 T01110039 10117 20022 58015
Loading
Personal Weather Stations






























Interactive Weather Map
Tropical Storm Tracking
New forecast layout! Learn more

10-Day Weather Forecast

Advertisements
Track Severe Weather on mobile